sensor_id;sensor_type;location;lat;lon;timestamp;P1;durP1;ratioP1;P2;durP2;ratioP2
49572;SDS011;35476;52.466;13.364;2023-03-01T00:00:48;20.90;;;11.43;;
49572;SDS011;35476;52.466;13.364;2023-03-01T00:03:13;18.50;;;9.90;;
49572;SDS011;35476;52.466;13.364;2023-03-01T00:05:44;23.10;;;11.05;;
49572;SDS011;35476;52.466;13.364;2023-03-01T00:08:10;23.27;;;10.00;;
49572;SDS011;35476;52.466;13.364;2023-03-01T00:10:35;22.80;;;11.07;;
49572;SDS011;35476;52.466;13.364;2023-03-01T00:13:01;23.02;;;10.32;;
49572;SDS011;35476;52.466;13.364;2023-03-01T00:15:26;25.80;;;10.65;;
49572;SDS011;35476;52.466;13.364;2023-03-01T00:17:51;21.60;;;11.20;;
49572;SDS011;35476;52.466;13.364;2023-03-01T00:20:16;21.30;;;11.15;;
49572;SDS011;35476;52.466;13.364;2023-03-01T00:22:41;18.38;;;9.55;;
49572;SDS011;35476;52.466;13.364;2023-03-01T00:25:07;21.90;;;10.88;;
49572;SDS011;35476;52.466;13.364;2023-03-01T00:27:32;25.17;;;12.20;;
49572;SDS011;35476;52.466;13.364;2023-03-01T00:29:57;26.23;;;10.93;;
49572;SDS011;35476;52.466;13.364;2023-03-01T00:32:23;17.98;;;10.35;;
49572;SDS011;35476;52.466;13.364;2023-03-01T00:34:48;20.80;;;10.20;;
49572;SDS011;35476;52.466;13.364;2023-03-01T00:37:20;21.63;;;11.13;;
49572;SDS011;35476;52.466;13.364;2023-03-01T00:39:45;25.98;;;10.20;;
49572;SDS011;35476;52.466;13.364;2023-03-01T00:42:11;21.52;;;11.27;;
49572;SDS011;35476;52.466;13.364;2023-03-01T00:44:36;25.45;;;11.80;;
49572;SDS011;35476;52.466;13.364;2023-03-01T00:47:01;25.08;;;12.05;;
49572;SDS011;35476;52.466;13.364;2023-03-01T00:49:26;24.98;;;11.30;;
49572;SDS011;35476;52.466;13.364;2023-03-01T00:51:52;19.20;;;10.20;;
49572;SDS011;35476;52.466;13.364;2023-03-01T00:54:17;17.88;;;10.20;;
49572;SDS011;35476;52.466;13.364;2023-03-01T00:56:43;18.63;;;10.32;;
49572;SDS011;35476;52.466;13.364;2023-03-01T00:59:08;28.33;;;12.20;;
49572;SDS011;35476;52.466;13.364;2023-03-01T01:01:33;26.55;;;12.05;;
49572;SDS011;35476;52.466;13.364;2023-03-01T01:04:06;19.35;;;10.93;;
49572;SDS011;35476;52.466;13.364;2023-03-01T01:06:41;17.27;;;8.40;;
49572;SDS011;35476;52.466;13.364;2023-03-01T01:09:09;23.13;;;12.63;;
49572;SDS011;35476;52.466;13.364;2023-03-01T01:11:41;18.90;;;10.68;;
49572;SDS011;35476;52.466;13.364;2023-03-01T01:14:07;23.80;;;11.85;;
49572;SDS011;35476;52.466;13.364;2023-03-01T01:16:32;26.23;;;11.65;;
49572;SDS011;35476;52.466;13.364;2023-03-01T01:18:58;26.13;;;11.20;;
49572;SDS011;35476;52.466;13.364;2023-03-01T01:21:23;32.15;;;11.20;;
49572;SDS011;35476;52.466;13.364;2023-03-01T01:23:49;22.10;;;10.75;;
49572;SDS011;35476;52.466;13.364;2023-03-01T01:26:24;25.50;;;12.43;;
49572;SDS011;35476;52.466;13.364;2023-03-01T01:28:50;21.42;;;10.63;;
49572;SDS011;35476;52.466;13.364;2023-03-01T01:31:15;27.25;;;11.50;;
49572;SDS011;35476;52.466;13.364;2023-03-01T01:33:41;18.92;;;10.20;;
49572;SDS011;35476;52.466;13.364;2023-03-01T01:36:06;23.58;;;10.50;;
49572;SDS011;35476;52.466;13.364;2023-03-01T01:38:32;26.15;;;11.90;;
49572;SDS011;35476;52.466;13.364;2023-03-01T01:40:58;23.13;;;10.80;;
49572;SDS011;35476;52.466;13.364;2023-03-01T01:43:24;19.88;;;11.35;;
49572;SDS011;35476;52.466;13.364;2023-03-01T01:45:50;19.02;;;11.65;;
49572;SDS011;35476;52.466;13.364;2023-03-01T01:48:20;18.88;;;10.57;;
49572;SDS011;35476;52.466;13.364;2023-03-01T01:50:46;24.60;;;11.82;;
49572;SDS011;35476;52.466;13.364;2023-03-01T01:53:14;23.45;;;10.68;;
49572;SDS011;35476;52.466;13.364;2023-03-01T01:55:42;21.45;;;11.52;;
49572;SDS011;35476;52.466;13.364;2023-03-01T01:58:08;22.38;;;10.80;;
49572;SDS011;35476;52.466;13.364;2023-03-01T02:00:35;20.73;;;10.18;;
49572;SDS011;35476;52.466;13.364;2023-03-01T02:03:03;21.63;;;11.52;;
49572;SDS011;35476;52.466;13.364;2023-03-01T02:05:34;25.73;;;12.27;;
49572;SDS011;35476;52.466;13.364;2023-03-01T02:08:02;20.17;;;11.07;;
49572;SDS011;35476;52.466;13.364;2023-03-01T02:10:27;24.17;;;11.48;;
49572;SDS011;35476;52.466;13.364;2023-03-01T02:12:53;18.50;;;10.38;;
49572;SDS011;35476;52.466;13.364;2023-03-01T02:15:18;26.45;;;11.05;;
49572;SDS011;35476;52.466;13.364;2023-03-01T02:17:44;20.90;;;9.45;;
49572;SDS011;35476;52.466;13.364;2023-03-01T02:22:35;26.17;;;12.68;;
49572;SDS011;35476;52.466;13.364;2023-03-01T02:27:29;24.08;;;11.48;;
49572;SDS011;35476;52.466;13.364;2023-03-01T02:29:58;26.45;;;12.25;;
49572;SDS011;35476;52.466;13.364;2023-03-01T02:32:23;22.70;;;11.15;;
49572;SDS011;35476;52.466;13.364;2023-03-01T02:34:53;24.35;;;10.90;;
49572;SDS011;35476;52.466;13.364;2023-03-01T02:37:19;22.70;;;10.90;;
49572;SDS011;35476;52.466;13.364;2023-03-01T02:39:50;21.90;;;11.02;;
49572;SDS011;35476;52.466;13.364;2023-03-01T02:42:20;24.17;;;12.52;;
49572;SDS011;35476;52.466;13.364;2023-03-01T02:44:46;21.52;;;10.98;;
49572;SDS011;35476;52.466;13.364;2023-03-01T02:47:13;22.67;;;12.00;;
49572;SDS011;35476;52.466;13.364;2023-03-01T02:49:38;19.70;;;9.88;;
49572;SDS011;35476;52.466;13.364;2023-03-01T02:52:09;17.77;;;10.32;;
49572;SDS011;35476;52.466;13.364;2023-03-01T02:54:41;19.20;;;8.57;;
49572;SDS011;35476;52.466;13.364;2023-03-01T02:57:07;18.63;;;10.05;;
49572;SDS011;35476;52.466;13.364;2023-03-01T02:59:35;19.02;;;10.63;;
49572;SDS011;35476;52.466;13.364;2023-03-01T03:02:04;18.90;;;9.52;;
49572;SDS011;35476;52.466;13.364;2023-03-01T03:04:30;28.88;;;11.55;;
49572;SDS011;35476;52.466;13.364;2023-03-01T03:06:55;20.70;;;11.13;;
49572;SDS011;35476;52.466;13.364;2023-03-01T03:09:20;19.40;;;9.80;;
49572;SDS011;35476;52.466;13.364;2023-03-01T03:11:45;20.13;;;10.35;;
49572;SDS011;35476;52.466;13.364;2023-03-01T03:14:11;18.42;;;13.27;;
49572;SDS011;35476;52.466;13.364;2023-03-01T03:16:43;15.82;;;9.40;;
49572;SDS011;35476;52.466;13.364;2023-03-01T03:19:09;26.42;;;11.60;;
49572;SDS011;35476;52.466;13.364;2023-03-01T03:21:34;19.90;;;10.55;;
49572;SDS011;35476;52.466;13.364;2023-03-01T03:23:59;21.50;;;10.85;;
49572;SDS011;35476;52.466;13.364;2023-03-01T03:26:25;18.17;;;10.50;;
49572;SDS011;35476;52.466;13.364;2023-03-01T03:28:50;20.50;;;12.10;;
49572;SDS011;35476;52.466;13.364;2023-03-01T03:31:15;20.33;;;11.00;;
49572;SDS011;35476;52.466;13.364;2023-03-01T03:33:41;24.90;;;10.55;;
49572;SDS011;35476;52.466;13.364;2023-03-01T03:36:06;20.40;;;11.50;;
49572;SDS011;35476;52.466;13.364;2023-03-01T03:38:31;19.10;;;10.18;;
49572;SDS011;35476;52.466;13.364;2023-03-01T03:41:04;17.65;;;9.60;;
49572;SDS011;35476;52.466;13.364;2023-03-01T03:43:31;24.77;;;12.50;;
49572;SDS011;35476;52.466;13.364;2023-03-01T03:45:56;21.73;;;12.10;;
49572;SDS011;35476;52.466;13.364;2023-03-01T03:48:22;21.08;;;12.18;;
49572;SDS011;35476;52.466;13.364;2023-03-01T03:50:48;23.70;;;10.32;;
49572;SDS011;35476;52.466;13.364;2023-03-01T03:53:14;24.75;;;11.10;;
49572;SDS011;35476;52.466;13.364;2023-03-01T03:55:39;21.65;;;10.77;;
49572;SDS011;35476;52.466;13.364;2023-03-01T03:58:05;19.38;;;10.10;;
49572;SDS011;35476;52.466;13.364;2023-03-01T04:00:35;19.05;;;11.32;;
49572;SDS011;35476;52.466;13.364;2023-03-01T04:03:00;22.75;;;11.82;;
49572;SDS011;35476;52.466;13.364;2023-03-01T04:05:26;18.65;;;9.68;;
49572;SDS011;35476;52.466;13.364;2023-03-01T04:07:51;19.52;;;10.73;;
49572;SDS011;35476;52.466;13.364;2023-03-01T04:10:26;19.73;;;10.38;;
49572;SDS011;35476;52.466;13.364;2023-03-01T04:12:51;21.88;;;10.60;;
49572;SDS011;35476;52.466;13.364;2023-03-01T04:15:17;22.67;;;11.05;;
49572;SDS011;35476;52.466;13.364;2023-03-01T04:17:43;22.00;;;9.88;;
49572;SDS011;35476;52.466;13.364;2023-03-01T04:20:09;20.70;;;8.80;;
49572;SDS011;35476;52.466;13.364;2023-03-01T04:22:36;24.50;;;10.85;;
49572;SDS011;35476;52.466;13.364;2023-03-01T04:25:01;26.13;;;11.75;;
49572;SDS011;35476;52.466;13.364;2023-03-01T04:27:27;26.80;;;12.52;;
49572;SDS011;35476;52.466;13.364;2023-03-01T04:29:52;21.65;;;11.00;;
49572;SDS011;35476;52.466;13.364;2023-03-01T04:32:17;25.75;;;11.88;;
49572;SDS011;35476;52.466;13.364;2023-03-01T04:34:43;26.17;;;12.00;;
49572;SDS011;35476;52.466;13.364;2023-03-01T04:37:08;23.10;;;12.43;;
49572;SDS011;35476;52.466;13.364;2023-03-01T04:39:33;20.55;;;12.88;;
49572;SDS011;35476;52.466;13.364;2023-03-01T04:41:59;19.38;;;11.20;;
49572;SDS011;35476;52.466;13.364;2023-03-01T04:44:24;22.55;;;11.10;;
49572;SDS011;35476;52.466;13.364;2023-03-01T04:46:49;26.02;;;12.43;;
49572;SDS011;35476;52.466;13.364;2023-03-01T04:49:15;30.92;;;10.73;;
49572;SDS011;35476;52.466;13.364;2023-03-01T04:51:41;25.77;;;12.68;;
49572;SDS011;35476;52.466;13.364;2023-03-01T04:54:06;20.52;;;10.75;;
49572;SDS011;35476;52.466;13.364;2023-03-01T04:56:33;20.48;;;11.45;;
49572;SDS011;35476;52.466;13.364;2023-03-01T04:58:58;25.63;;;12.38;;
49572;SDS011;35476;52.466;13.364;2023-03-01T05:01:25;21.08;;;11.55;;
49572;SDS011;35476;52.466;13.364;2023-03-01T05:03:50;19.05;;;10.27;;
49572;SDS011;35476;52.466;13.364;2023-03-01T05:06:16;24.42;;;11.63;;
49572;SDS011;35476;52.466;13.364;2023-03-01T05:08:42;18.98;;;9.60;;
49572;SDS011;35476;52.466;13.364;2023-03-01T05:11:08;22.73;;;11.13;;
49572;SDS011;35476;52.466;13.364;2023-03-01T05:13:34;20.77;;;10.68;;
49572;SDS011;35476;52.466;13.364;2023-03-01T05:16:00;24.38;;;11.70;;
49572;SDS011;35476;52.466;13.364;2023-03-01T05:18:26;23.85;;;11.05;;
49572;SDS011;35476;52.466;13.364;2023-03-01T05:20:52;19.90;;;10.50;;
49572;SDS011;35476;52.466;13.364;2023-03-01T05:23:17;22.27;;;11.52;;
49572;SDS011;35476;52.466;13.364;2023-03-01T05:25:43;21.85;;;9.93;;
49572;SDS011;35476;52.466;13.364;2023-03-01T05:28:12;21.25;;;11.68;;
49572;SDS011;35476;52.466;13.364;2023-03-01T05:30:37;18.38;;;10.02;;
49572;SDS011;35476;52.466;13.364;2023-03-01T05:33:04;20.25;;;11.90;;
49572;SDS011;35476;52.466;13.364;2023-03-01T05:35:29;19.88;;;10.45;;
49572;SDS011;35476;52.466;13.364;2023-03-01T05:37:57;27.75;;;12.40;;
49572;SDS011;35476;52.466;13.364;2023-03-01T05:40:23;21.63;;;12.00;;
49572;SDS011;35476;52.466;13.364;2023-03-01T05:42:49;19.77;;;10.40;;
49572;SDS011;35476;52.466;13.364;2023-03-01T05:45:15;18.27;;;10.75;;
49572;SDS011;35476;52.466;13.364;2023-03-01T05:47:41;24.30;;;10.40;;
49572;SDS011;35476;52.466;13.364;2023-03-01T05:50:10;18.92;;;12.00;;
49572;SDS011;35476;52.466;13.364;2023-03-01T05:52:35;21.70;;;11.68;;
49572;SDS011;35476;52.466;13.364;2023-03-01T05:55:00;25.08;;;11.38;;
49572;SDS011;35476;52.466;13.364;2023-03-01T05:57:27;21.10;;;11.68;;
49572;SDS011;35476;52.466;13.364;2023-03-01T05:59:52;19.08;;;11.60;;
49572;SDS011;35476;52.466;13.364;2023-03-01T06:02:17;20.42;;;10.05;;
49572;SDS011;35476;52.466;13.364;2023-03-01T06:04:43;20.20;;;10.93;;
49572;SDS011;35476;52.466;13.364;2023-03-01T06:07:08;20.83;;;10.75;;
49572;SDS011;35476;52.466;13.364;2023-03-01T06:09:33;24.52;;;12.27;;
49572;SDS011;35476;52.466;13.364;2023-03-01T06:11:59;19.33;;;11.32;;
49572;SDS011;35476;52.466;13.364;2023-03-01T06:14:24;19.50;;;12.50;;
49572;SDS011;35476;52.466;13.364;2023-03-01T06:16:50;21.25;;;11.65;;
49572;SDS011;35476;52.466;13.364;2023-03-01T06:19:15;22.05;;;11.43;;
49572;SDS011;35476;52.466;13.364;2023-03-01T06:21:41;23.58;;;12.18;;
49572;SDS011;35476;52.466;13.364;2023-03-01T06:24:07;22.95;;;11.45;;
49572;SDS011;35476;52.466;13.364;2023-03-01T06:26:33;26.25;;;12.23;;
49572;SDS011;35476;52.466;13.364;2023-03-01T06:28:58;33.83;;;16.65;;
49572;SDS011;35476;52.466;13.364;2023-03-01T06:31:23;22.73;;;13.20;;
49572;SDS011;35476;52.466;13.364;2023-03-01T06:33:49;33.50;;;15.48;;
49572;SDS011;35476;52.466;13.364;2023-03-01T06:36:14;31.42;;;12.75;;
49572;SDS011;35476;52.466;13.364;2023-03-01T06:38:39;21.52;;;12.18;;
49572;SDS011;35476;52.466;13.364;2023-03-01T06:41:05;24.55;;;12.35;;
49572;SDS011;35476;52.466;13.364;2023-03-01T06:43:31;28.60;;;12.88;;
49572;SDS011;35476;52.466;13.364;2023-03-01T06:45:57;20.95;;;11.75;;
49572;SDS011;35476;52.466;13.364;2023-03-01T06:48:22;24.90;;;12.30;;
49572;SDS011;35476;52.466;13.364;2023-03-01T06:50:47;21.30;;;12.38;;
49572;SDS011;35476;52.466;13.364;2023-03-01T06:53:12;30.20;;;15.60;;
49572;SDS011;35476;52.466;13.364;2023-03-01T06:55:37;28.48;;;14.93;;
49572;SDS011;35476;52.466;13.364;2023-03-01T06:58:03;26.98;;;15.15;;
49572;SDS011;35476;52.466;13.364;2023-03-01T07:00:28;30.88;;;16.02;;
49572;SDS011;35476;52.466;13.364;2023-03-01T07:02:53;35.25;;;20.88;;
49572;SDS011;35476;52.466;13.364;2023-03-01T07:05:19;29.42;;;17.98;;
49572;SDS011;35476;52.466;13.364;2023-03-01T07:07:44;33.42;;;17.63;;
49572;SDS011;35476;52.466;13.364;2023-03-01T07:10:09;31.08;;;16.80;;
49572;SDS011;35476;52.466;13.364;2023-03-01T07:12:35;28.40;;;16.83;;
49572;SDS011;35476;52.466;13.364;2023-03-01T07:15:00;28.30;;;17.50;;
49572;SDS011;35476;52.466;13.364;2023-03-01T07:17:25;29.35;;;17.15;;
49572;SDS011;35476;52.466;13.364;2023-03-01T07:19:51;32.60;;;17.77;;
49572;SDS011;35476;52.466;13.364;2023-03-01T07:22:16;36.05;;;17.98;;
49572;SDS011;35476;52.466;13.364;2023-03-01T07:24:42;41.75;;;18.20;;
49572;SDS011;35476;52.466;13.364;2023-03-01T07:27:07;79.82;;;20.25;;
49572;SDS011;35476;52.466;13.364;2023-03-01T07:29:32;44.40;;;22.15;;
49572;SDS011;35476;52.466;13.364;2023-03-01T07:31:57;51.55;;;21.15;;
49572;SDS011;35476;52.466;13.364;2023-03-01T07:34:23;37.13;;;19.17;;
49572;SDS011;35476;52.466;13.364;2023-03-01T07:36:48;28.58;;;17.08;;
49572;SDS011;35476;52.466;13.364;2023-03-01T07:39:13;31.63;;;17.45;;
49572;SDS011;35476;52.466;13.364;2023-03-01T07:41:38;30.80;;;17.43;;
49572;SDS011;35476;52.466;13.364;2023-03-01T07:44:04;30.17;;;17.83;;
49572;SDS011;35476;52.466;13.364;2023-03-01T07:46:29;34.13;;;18.23;;
49572;SDS011;35476;52.466;13.364;2023-03-01T07:48:54;29.90;;;19.70;;
49572;SDS011;35476;52.466;13.364;2023-03-01T07:51:20;29.37;;;18.07;;
49572;SDS011;35476;52.466;13.364;2023-03-01T07:53:46;32.17;;;19.13;;
49572;SDS011;35476;52.466;13.364;2023-03-01T07:56:12;32.47;;;19.50;;
49572;SDS011;35476;52.466;13.364;2023-03-01T07:58:39;30.40;;;17.40;;
49572;SDS011;35476;52.466;13.364;2023-03-01T08:01:05;27.42;;;17.00;;
49572;SDS011;35476;52.466;13.364;2023-03-01T08:03:30;21.42;;;14.35;;
49572;SDS011;35476;52.466;13.364;2023-03-01T08:05:55;19.50;;;13.70;;
49572;SDS011;35476;52.466;13.364;2023-03-01T08:08:20;18.25;;;13.18;;
49572;SDS011;35476;52.466;13.364;2023-03-01T08:10:45;17.50;;;12.47;;
49572;SDS011;35476;52.466;13.364;2023-03-01T08:13:11;23.17;;;14.33;;
49572;SDS011;35476;52.466;13.364;2023-03-01T08:15:36;19.23;;;13.48;;
49572;SDS011;35476;52.466;13.364;2023-03-01T08:18:01;17.80;;;11.80;;
49572;SDS011;35476;52.466;13.364;2023-03-01T08:20:26;22.13;;;13.43;;
49572;SDS011;35476;52.466;13.364;2023-03-01T08:22:51;30.03;;;13.70;;
49572;SDS011;35476;52.466;13.364;2023-03-01T08:25:17;17.93;;;11.93;;
49572;SDS011;35476;52.466;13.364;2023-03-01T08:27:42;18.27;;;13.13;;
49572;SDS011;35476;52.466;13.364;2023-03-01T08:30:07;22.93;;;13.53;;
49572;SDS011;35476;52.466;13.364;2023-03-01T08:32:37;17.77;;;13.90;;
49572;SDS011;35476;52.466;13.364;2023-03-01T08:35:03;19.30;;;12.98;;
49572;SDS011;35476;52.466;13.364;2023-03-01T08:37:28;18.73;;;12.60;;
49572;SDS011;35476;52.466;13.364;2023-03-01T08:39:55;13.88;;;9.90;;
49572;SDS011;35476;52.466;13.364;2023-03-01T08:42:21;12.70;;;9.45;;
49572;SDS011;35476;52.466;13.364;2023-03-01T08:44:46;12.10;;;7.57;;
49572;SDS011;35476;52.466;13.364;2023-03-01T08:47:11;10.60;;;8.37;;
49572;SDS011;35476;52.466;13.364;2023-03-01T08:49:36;12.10;;;7.37;;
49572;SDS011;35476;52.466;13.364;2023-03-01T08:52:02;10.82;;;7.35;;
49572;SDS011;35476;52.466;13.364;2023-03-01T08:54:27;13.75;;;6.85;;
49572;SDS011;35476;52.466;13.364;2023-03-01T08:56:52;7.97;;;6.07;;
49572;SDS011;35476;52.466;13.364;2023-03-01T08:59:18;10.17;;;7.07;;
49572;SDS011;35476;52.466;13.364;2023-03-01T09:01:43;14.57;;;6.72;;
49572;SDS011;35476;52.466;13.364;2023-03-01T09:04:09;10.03;;;6.63;;
49572;SDS011;35476;52.466;13.364;2023-03-01T09:06:34;9.43;;;5.85;;
49572;SDS011;35476;52.466;13.364;2023-03-01T09:09:00;9.27;;;6.33;;
49572;SDS011;35476;52.466;13.364;2023-03-01T09:11:25;13.07;;;6.57;;
49572;SDS011;35476;52.466;13.364;2023-03-01T09:13:50;13.53;;;6.60;;
49572;SDS011;35476;52.466;13.364;2023-03-01T09:16:16;11.55;;;6.95;;
49572;SDS011;35476;52.466;13.364;2023-03-01T09:18:42;10.25;;;5.60;;
49572;SDS011;35476;52.466;13.364;2023-03-01T09:21:09;10.50;;;6.03;;
49572;SDS011;35476;52.466;13.364;2023-03-01T09:23:35;8.60;;;5.82;;
49572;SDS011;35476;52.466;13.364;2023-03-01T09:26:01;8.00;;;5.53;;
49572;SDS011;35476;52.466;13.364;2023-03-01T09:28:27;13.25;;;5.57;;
49572;SDS011;35476;52.466;13.364;2023-03-01T09:30:52;8.90;;;5.47;;
49572;SDS011;35476;52.466;13.364;2023-03-01T09:33:17;8.87;;;5.50;;
49572;SDS011;35476;52.466;13.364;2023-03-01T09:35:43;11.03;;;5.50;;
49572;SDS011;35476;52.466;13.364;2023-03-01T09:38:12;7.65;;;6.00;;
49572;SDS011;35476;52.466;13.364;2023-03-01T09:40:41;11.18;;;5.75;;
49572;SDS011;35476;52.466;13.364;2023-03-01T09:43:08;8.63;;;5.93;;
49572;SDS011;35476;52.466;13.364;2023-03-01T09:45:39;9.32;;;5.68;;
49572;SDS011;35476;52.466;13.364;2023-03-01T09:48:06;8.95;;;5.40;;
49572;SDS011;35476;52.466;13.364;2023-03-01T09:50:36;8.38;;;5.72;;
49572;SDS011;35476;52.466;13.364;2023-03-01T09:53:05;9.07;;;5.55;;
49572;SDS011;35476;52.466;13.364;2023-03-01T09:57:59;9.57;;;5.40;;
49572;SDS011;35476;52.466;13.364;2023-03-01T10:05:26;9.80;;;5.33;;
49572;SDS011;35476;52.466;13.364;2023-03-01T10:10:43;11.07;;;4.53;;
49572;SDS011;35476;52.466;13.364;2023-03-01T10:15:56;8.80;;;5.20;;
49572;SDS011;35476;52.466;13.364;2023-03-01T10:18:26;6.93;;;4.50;;
49572;SDS011;35476;52.466;13.364;2023-03-01T10:23:17;8.33;;;4.43;;
49572;SDS011;35476;52.466;13.364;2023-03-01T10:26:07;7.53;;;4.90;;
49572;SDS011;35476;52.466;13.364;2023-03-01T10:28:48;9.65;;;5.65;;
49572;SDS011;35476;52.466;13.364;2023-03-01T10:31:22;9.75;;;5.75;;
49572;SDS011;35476;52.466;13.364;2023-03-01T10:33:52;11.10;;;5.70;;
49572;SDS011;35476;52.466;13.364;2023-03-01T10:36:20;15.52;;;6.05;;
49572;SDS011;35476;52.466;13.364;2023-03-01T10:38:55;8.55;;;5.95;;
49572;SDS011;35476;52.466;13.364;2023-03-01T10:41:22;10.60;;;6.03;;
49572;SDS011;35476;52.466;13.364;2023-03-01T10:43:55;11.77;;;5.20;;
49572;SDS011;35476;52.466;13.364;2023-03-01T10:46:36;10.50;;;5.83;;
49572;SDS011;35476;52.466;13.364;2023-03-01T10:51:30;7.85;;;5.55;;
49572;SDS011;35476;52.466;13.364;2023-03-01T10:53:55;10.40;;;5.87;;
49572;SDS011;35476;52.466;13.364;2023-03-01T10:56:20;7.90;;;5.90;;
49572;SDS011;35476;52.466;13.364;2023-03-01T10:58:59;12.27;;;7.37;;
49572;SDS011;35476;52.466;13.364;2023-03-01T11:01:26;7.35;;;6.10;;
49572;SDS011;35476;52.466;13.364;2023-03-01T11:06:39;9.38;;;6.25;;
49572;SDS011;35476;52.466;13.364;2023-03-01T11:11:38;8.10;;;5.70;;
49572;SDS011;35476;52.466;13.364;2023-03-01T11:14:07;12.13;;;5.80;;
49572;SDS011;35476;52.466;13.364;2023-03-01T11:16:38;7.05;;;6.32;;
49572;SDS011;35476;52.466;13.364;2023-03-01T11:26:46;7.68;;;5.85;;
49572;SDS011;35476;52.466;13.364;2023-03-01T11:29:25;12.13;;;6.20;;
49572;SDS011;35476;52.466;13.364;2023-03-01T11:31:51;9.05;;;5.35;;
49572;SDS011;35476;52.466;13.364;2023-03-01T11:34:20;13.93;;;5.75;;
49572;SDS011;35476;52.466;13.364;2023-03-01T11:36:52;11.18;;;5.10;;
49572;SDS011;35476;52.466;13.364;2023-03-01T11:42:02;16.10;;;6.05;;
49572;SDS011;35476;52.466;13.364;2023-03-01T11:44:30;7.28;;;4.90;;
49572;SDS011;35476;52.466;13.364;2023-03-01T11:56:52;8.63;;;4.85;;
49572;SDS011;35476;52.466;13.364;2023-03-01T12:01:54;6.90;;;4.20;;
49572;SDS011;35476;52.466;13.364;2023-03-01T12:25:34;6.80;;;4.03;;
49572;SDS011;35476;52.466;13.364;2023-03-01T12:28:13;9.23;;;4.40;;
49572;SDS011;35476;52.466;13.364;2023-03-01T12:31:05;9.68;;;4.10;;
49572;SDS011;35476;52.466;13.364;2023-03-01T12:34:38;10.43;;;4.28;;
49572;SDS011;35476;52.466;13.364;2023-03-01T12:36:39;9.00;;;4.35;;
49572;SDS011;35476;52.466;13.364;2023-03-01T12:47:07;7.05;;;3.72;;
49572;SDS011;35476;52.466;13.364;2023-03-01T12:49:47;7.10;;;4.05;;
49572;SDS011;35476;52.466;13.364;2023-03-01T12:52:15;7.68;;;3.65;;
49572;SDS011;35476;52.466;13.364;2023-03-01T12:54:41;7.75;;;3.85;;
49572;SDS011;35476;52.466;13.364;2023-03-01T12:57:50;5.70;;;3.10;;
49572;SDS011;35476;52.466;13.364;2023-03-01T13:05:23;4.15;;;3.40;;
49572;SDS011;35476;52.466;13.364;2023-03-01T13:13:12;5.63;;;3.75;;
49572;SDS011;35476;52.466;13.364;2023-03-01T13:15:38;9.27;;;3.50;;
49572;SDS011;35476;52.466;13.364;2023-03-01T13:25:34;4.63;;;3.30;;
49572;SDS011;35476;52.466;13.364;2023-03-01T13:30:51;6.18;;;3.60;;
49572;SDS011;35476;52.466;13.364;2023-03-01T13:35:50;9.35;;;3.72;;
49572;SDS011;35476;52.466;13.364;2023-03-01T13:43:37;5.77;;;3.77;;
49572;SDS011;35476;52.466;13.364;2023-03-01T13:46:10;5.35;;;3.80;;
49572;SDS011;35476;52.466;13.364;2023-03-01T13:48:36;4.43;;;2.78;;
49572;SDS011;35476;52.466;13.364;2023-03-01T13:51:03;7.25;;;3.90;;
49572;SDS011;35476;52.466;13.364;2023-03-01T13:53:30;5.80;;;3.75;;
49572;SDS011;35476;52.466;13.364;2023-03-01T13:55:58;5.07;;;3.00;;
49572;SDS011;35476;52.466;13.364;2023-03-01T13:58:26;6.35;;;4.22;;
49572;SDS011;35476;52.466;13.364;2023-03-01T14:00:55;6.30;;;2.67;;
49572;SDS011;35476;52.466;13.364;2023-03-01T14:03:21;10.00;;;4.05;;
49572;SDS011;35476;52.466;13.364;2023-03-01T14:08:34;6.50;;;3.72;;
49572;SDS011;35476;52.466;13.364;2023-03-01T14:13:43;6.63;;;4.03;;
49572;SDS011;35476;52.466;13.364;2023-03-01T14:18:55;4.45;;;3.03;;
49572;SDS011;35476;52.466;13.364;2023-03-01T14:21:22;4.35;;;3.03;;
49572;SDS011;35476;52.466;13.364;2023-03-01T14:23:48;4.40;;;3.47;;
49572;SDS011;35476;52.466;13.364;2023-03-01T14:26:13;6.13;;;3.38;;
49572;SDS011;35476;52.466;13.364;2023-03-01T14:28:44;7.75;;;3.15;;
49572;SDS011;35476;52.466;13.364;2023-03-01T14:31:29;4.80;;;3.27;;
49572;SDS011;35476;52.466;13.364;2023-03-01T14:33:56;5.35;;;2.88;;
49572;SDS011;35476;52.466;13.364;2023-03-01T14:36:31;11.97;;;3.33;;
49572;SDS011;35476;52.466;13.364;2023-03-01T14:38:57;3.80;;;2.92;;
49572;SDS011;35476;52.466;13.364;2023-03-01T14:41:30;4.82;;;3.47;;
49572;SDS011;35476;52.466;13.364;2023-03-01T14:44:06;7.50;;;4.10;;
49572;SDS011;35476;52.466;13.364;2023-03-01T14:46:36;5.30;;;3.17;;
49572;SDS011;35476;52.466;13.364;2023-03-01T14:49:19;5.85;;;3.80;;
49572;SDS011;35476;52.466;13.364;2023-03-01T14:57:00;7.25;;;4.28;;
49572;SDS011;35476;52.466;13.364;2023-03-01T14:59:25;9.27;;;3.17;;
49572;SDS011;35476;52.466;13.364;2023-03-01T15:01:51;6.45;;;3.22;;
49572;SDS011;35476;52.466;13.364;2023-03-01T15:04:17;6.15;;;3.50;;
49572;SDS011;35476;52.466;13.364;2023-03-01T15:06:43;7.90;;;3.25;;
49572;SDS011;35476;52.466;13.364;2023-03-01T15:09:12;6.45;;;4.03;;
49572;SDS011;35476;52.466;13.364;2023-03-01T15:11:38;6.20;;;3.53;;
49572;SDS011;35476;52.466;13.364;2023-03-01T15:14:51;4.03;;;2.90;;
49572;SDS011;35476;52.466;13.364;2023-03-01T15:16:51;5.15;;;3.30;;
49572;SDS011;35476;52.466;13.364;2023-03-01T15:19:17;4.68;;;2.97;;
49572;SDS011;35476;52.466;13.364;2023-03-01T15:21:43;4.40;;;2.70;;
49572;SDS011;35476;52.466;13.364;2023-03-01T15:26:44;6.28;;;2.78;;
49572;SDS011;35476;52.466;13.364;2023-03-01T15:29:16;5.70;;;3.10;;
49572;SDS011;35476;52.466;13.364;2023-03-01T15:31:42;4.78;;;2.88;;
49572;SDS011;35476;52.466;13.364;2023-03-01T15:34:23;3.90;;;2.72;;
49572;SDS011;35476;52.466;13.364;2023-03-01T15:36:50;6.25;;;3.47;;
49572;SDS011;35476;52.466;13.364;2023-03-01T15:41:57;5.82;;;2.70;;
49572;SDS011;35476;52.466;13.364;2023-03-01T15:44:33;3.78;;;2.65;;
49572;SDS011;35476;52.466;13.364;2023-03-01T15:46:59;3.92;;;2.75;;
49572;SDS011;35476;52.466;13.364;2023-03-01T15:51:50;5.25;;;2.95;;
49572;SDS011;35476;52.466;13.364;2023-03-01T15:54:20;8.05;;;2.67;;
49572;SDS011;35476;52.466;13.364;2023-03-01T15:56:45;8.27;;;3.13;;
49572;SDS011;35476;52.466;13.364;2023-03-01T15:59:11;5.93;;;3.42;;
49572;SDS011;35476;52.466;13.364;2023-03-01T16:01:38;12.30;;;4.20;;
49572;SDS011;35476;52.466;13.364;2023-03-01T16:04:03;6.35;;;3.30;;
49572;SDS011;35476;52.466;13.364;2023-03-01T16:06:28;4.15;;;3.25;;
49572;SDS011;35476;52.466;13.364;2023-03-01T16:08:54;10.13;;;3.63;;
49572;SDS011;35476;52.466;13.364;2023-03-01T16:11:19;5.73;;;3.20;;
49572;SDS011;35476;52.466;13.364;2023-03-01T16:13:45;6.40;;;3.40;;
49572;SDS011;35476;52.466;13.364;2023-03-01T16:16:10;4.65;;;3.25;;
49572;SDS011;35476;52.466;13.364;2023-03-01T16:18:37;7.65;;;3.10;;
49572;SDS011;35476;52.466;13.364;2023-03-01T16:21:03;7.32;;;3.33;;
49572;SDS011;35476;52.466;13.364;2023-03-01T16:23:28;7.05;;;4.22;;
49572;SDS011;35476;52.466;13.364;2023-03-01T16:25:53;7.27;;;3.77;;
49572;SDS011;35476;52.466;13.364;2023-03-01T16:28:18;6.70;;;2.90;;